Baudette International Airport
KBDE : now visible

Airfield :











YOU CAN JOIN US ON...

 
LOGIN :

Register | Disclaimer

   EN    FR    IT 

 









Legend :    VFR   Marginal VFR   IFR   Intensive IFR   Very Intensive IFR
Visi :
Ceiling :
>= 8 km
>= 3000ft
5 to 8 km
1000 to 3000 ft
1500m to 5 km
500 to 1000 ft
800 to 1500m
200 to 500 ft
< 800m
< 200 ft
Symbols :   Thunderstorms  Fog  Heavy snow  Heavy precipitations  Wind > 20 kt






- Airport Elevation : 1086 ft


KBDE - Baudette International

CURRENT METAR :
  • 281726Z AUTO 34009KT 5SM -SN BR SCT012 BKN020 OVC060 01/M01 A2984 RMK AO2 P0000 T00111006

EXPIRED METARs :
  • 281719Z AUTO 34008KT 4SM -SN BR SCT009 BKN046 OVC060 01/M01 A2983 RMK AO2 P0000 T00111006
  • 281653Z AUTO 34009KT 4SM -SN BR BKN008 BKN014 OVC044 01/00 A2981 RMK AO2 PRESRR SLP111 P0001 T00060000
  • 281643Z AUTO 35010KT 5SM -SN BR BKN006 OVC014 01/00 A2980 RMK AO2 P0001 T00060000
  • 281632Z AUTO 34009KT 3SM -SN BR BKN004 OVC014 01/00 A2979 RMK AO2 P0001 T00060000
  • 281619Z AUTO 34007KT 1 3/4SM -SN BR OVC004 01/00 A2978 RMK AO2 P0000 T00060000
  • 281553Z AUTO 33007KT 3SM -SN BR OVC004 01/00 A2976 RMK AO2 CIG 003V007 SLP093 P0001 T00060000
  • 281540Z AUTO 33006KT 3SM -SN BR BKN003 OVC009 01/00 A2976 RMK AO2 CIG 002V006 P0001 T00060000
  • 281531Z AUTO 34006KT 2SM -SN BR BKN003 OVC009 01/00 A2975 RMK AO2 P0001 T00060000
  • 281522Z AUTO 32004KT 1 1/4SM -SN BR BKN003 OVC011 01/00 A2975 RMK AO2 P0001 T00060000
  • 281506Z AUTO 34003KT 1 1/4SM -SN BR BKN005 BKN010 OVC025 01/00 A2973 RMK AO2 P0000 T00060000
  • 281453Z AUTO 34003KT 1/2SM SN FG OVC007 00/00 A2973 RMK AO2 SLP083 P0007 60027 T00000000 53023

TAF N/A
KZMP FIR / North America



MET'MAP, your aeronautical weather chart ! - Copyright ORBIFLY December 2007 - Disclaimer

ORBIFLY MET'MAP TEAM :

Programming & Development : Alexandra Zaïnal
Concept & original design : Baudouin d'Aumeries
Assistance for programming : Marc-Olivier Méhu
Technical & hardware support : Manuel Goepfert

Contact : metmap@orbifly.com




SOURCES & CREDITS :

   NOAA       Earth
Advisory